Time;durP1;ratioP1;P1;durP2;ratioP2;P2;SDS_P1;SDS_P2;PMS_P1;PMS_P2;Temp;Humidity;BMP_temperature;BMP_pressure;BME280_temperature;BME280_humidity;BME280_pressure;Samples;Min_cycle;Max_cycle;Signal;HPM_P1;HPM_P2
2022/09/30 00:02:14;;;;;;;32.20;24.20;;;;;;;7.51;77.44;99514.01;106093;1271;138216;-75
2022/09/30 00:04:47;;;;;;;31.90;23.20;;;;;;;7.49;77.24;99508.02;106241;1270;97858;-75
2022/09/30 00:07:19;;;;;;;31.30;21.80;;;;;;;7.48;77.41;99511.50;106131;1270;138314;-75
2022/09/30 00:09:51;;;;;;;29.60;22.50;;;;;;;7.48;77.58;99507.55;106276;1270;112427;-75
2022/09/30 00:12:26;;;;;;;30.10;22.60;;;;;;;7.48;77.64;99504.95;106171;1270;138592;-76
2022/09/30 00:15:00;;;;;;;28.10;22.30;;;;;;;7.48;77.63;99501.33;106250;1270;106914;-76
2022/09/30 00:17:33;;;;;;;28.40;21.40;;;;;;;7.47;77.78;99504.10;106331;1270;97848;-75
2022/09/30 00:20:08;;;;;;;29.40;21.50;;;;;;;7.47;77.84;99508.09;106135;1270;138188;-76
2022/09/30 00:22:41;;;;;;;27.80;20.80;;;;;;;7.47;77.87;99510.52;106288;1270;111274;-75
2022/09/30 00:25:15;;;;;;;28.10;20.60;;;;;;;7.47;78.04;99509.66;106181;1271;138453;-75
2022/09/30 00:27:47;;;;;;;30.40;20.80;;;;;;;7.47;78.00;99512.95;106249;1270;107779;-74
2022/09/30 00:30:19;;;;;;;27.40;20.80;;;;;;;7.47;78.08;99514.15;106182;1270;138511;-74
2022/09/30 00:32:52;;;;;;;28.10;21.40;;;;;;;7.47;78.06;99513.95;106244;1270;97865;-75
2022/09/30 00:35:24;;;;;;;28.40;21.50;;;;;;;7.48;78.16;99517.73;106257;1270;111326;-75
2022/09/30 00:37:59;;;;;;;27.40;20.90;;;;;;;7.48;78.23;99519.12;106127;1270;138835;-75
2022/09/30 00:40:31;;;;;;;26.80;20.50;;;;;;;7.47;78.17;99516.03;106240;1270;107485;-75
2022/09/30 00:43:05;;;;;;;30.20;20.60;;;;;;;7.47;78.19;99519.00;106098;1270;138380;-77
2022/09/30 00:45:38;;;;;;;26.30;20.10;;;;;;;7.47;78.35;99521.42;106258;1270;97834;-75
2022/09/30 00:48:16;;;;;;;24.70;19.40;;;;;;;7.46;78.32;99516.76;106111;1272;140131;-75
2022/09/30 00:50:54;;;;;;;25.70;20.00;;;;;;;7.47;78.30;99513.64;106286;1270;108995;-75
2022/09/30 00:53:31;;;;;;;26.70;20.20;;;;;;;7.46;78.30;99513.30;106258;1271;109011;-74
2022/09/30 00:56:07;;;;;;;26.30;19.50;;;;;;;7.47;78.10;99516.74;106177;1271;139410;-75
2022/09/30 00:58:45;;;;;;;26.70;19.40;;;;;;;7.48;78.22;99519.14;106299;1271;97812;-77
2022/09/30 01:01:19;;;;;;;26.40;19.60;;;;;;;7.48;78.18;99520.34;106203;1271;138220;-77
2022/09/30 01:03:55;;;;;;;24.30;19.20;;;;;;;7.48;78.11;99517.22;106127;1272;108107;-76
2022/09/30 01:06:27;;;;;;;26.00;19.80;;;;;;;7.48;78.24;99511.16;106112;1270;138963;-75
2022/09/30 01:09:00;;;;;;;25.40;19.10;;;;;;;7.48;78.13;99512.54;106292;1270;97875;-75
2022/09/30 01:11:33;;;;;;;20.50;17.50;;;;;;;7.48;78.23;99518.08;106256;1270;97901;-74
2022/09/30 01:14:11;;;;;;;23.50;19.10;;;;;;;7.49;78.19;99512.51;106191;1270;138206;-75
2022/09/30 01:16:55;;;;;;;24.00;18.20;;;;;;;7.50;78.22;99511.98;106281;1272;107839;-77
2022/09/30 01:19:48;;;;;;;25.70;17.70;;;;;;;7.51;78.31;99512.45;106202;1270;138858;-75
2022/09/30 01:22:32;;;;;;;23.80;17.60;;;;;;;7.52;78.14;99510.67;106294;1271;97859;-75
2022/09/30 01:25:24;;;;;;;28.20;18.80;;;;;;;7.53;78.10;99504.95;106166;1270;138711;-76
2022/09/30 01:28:37;;;;;;;24.60;18.70;;;;;;;7.53;78.05;99503.40;106322;1271;110445;-76
2022/09/30 01:31:23;;;;;;;26.30;19.40;;;;;;;7.53;78.20;99509.96;106176;1271;138872;-76
2022/09/30 01:34:06;;;;;;;22.40;18.30;;;;;;;7.52;78.19;99517.25;106255;1270;107778;-76
2022/09/30 01:36:53;;;;;;;25.70;19.50;;;;;;;7.53;78.14;99518.11;106551;1270;138603;-75
2022/09/30 01:39:37;;;;;;;28.80;19.70;;;;;;;7.54;78.45;99520.15;106244;1272;98136;-76
2022/09/30 01:42:18;;;;;;;25.70;19.80;;;;;;;7.55;78.29;99521.34;106125;1270;138377;-74
2022/09/30 01:45:02;;;;;;;28.20;20.50;;;;;;;7.54;78.13;99520.31;106201;1270;107823;-74
2022/09/30 01:47:42;;;;;;;27.20;20.60;;;;;;;7.53;78.19;99527.95;107127;1270;109061;-75
2022/09/30 01:50:21;;;;;;;28.60;20.80;;;;;;;7.52;78.06;99529.19;106141;1272;138208;-75
2022/09/30 01:53:03;;;;;;;25.30;20.20;;;;;;;7.50;78.13;99533.25;106299;1270;97805;-75
2022/09/30 01:55:42;;;;;;;27.10;21.20;;;;;;;7.48;78.09;99537.29;106111;1272;137191;-76
2022/09/30 01:58:19;;;;;;;27.20;21.10;;;;;;;7.46;78.38;99541.85;106414;1270;108167;-75
2022/09/30 02:00:53;;;;;;;;;;;;;;;7.46;78.41;99546.55;106140;1270;138654;-75
2022/09/30 02:03:32;;;;;;;28.20;19.60;;;;;;;7.42;78.49;99547.52;106194;1272;97838;-76
2022/09/30 02:06:08;;;;;;;26.90;20.20;;;;;;;7.39;78.47;99550.70;107718;1271;138396;-76
2022/09/30 02:08:46;;;;;;;26.00;19.70;;;;;;;7.38;78.46;99553.70;107877;1270;112464;-76
2022/09/30 02:11:23;;;;;;;28.50;20.80;;;;;;;7.37;78.55;99553.21;106508;1270;108904;-76
2022/09/30 02:14:01;;;;;;;31.30;21.30;;;;;;;7.38;78.70;99555.45;106162;1269;139342;-75
2022/09/30 02:16:39;;;;;;;32.00;22.80;;;;;;;7.34;78.30;99561.91;106343;1270;98483;-75
2022/09/30 02:19:19;;;;;;;31.70;23.20;;;;;;;7.29;78.23;99565.19;106161;1270;138234;-75
2022/09/30 02:21:56;;;;;;;31.20;22.40;;;;;;;7.25;78.18;99573.62;106284;1270;112462;-75
2022/09/30 02:24:35;;;;;;;28.20;22.10;;;;;;;7.21;78.25;99575.82;106140;1271;139765;-75
2022/09/30 02:27:13;;;;;;;29.30;21.80;;;;;;;7.17;78.30;99575.20;106190;1272;107801;-75
2022/09/30 02:29:49;;;;;;;30.20;22.50;;;;;;;7.15;78.62;99569.92;106182;1271;97876;-75
2022/09/30 02:32:27;;;;;;;32.20;22.80;;;;;;;7.17;78.83;99572.64;106123;1271;138216;-75
2022/09/30 02:35:02;;;;;;;32.20;22.30;;;;;;;7.18;78.81;99576.92;106354;1270;112527;-75
2022/09/30 02:37:41;;;;;;;31.10;23.40;;;;;;;7.16;78.71;99581.47;106121;1271;139205;-74
2022/09/30 02:40:18;;;;;;;33.00;23.20;;;;;;;7.13;78.73;99576.89;106290;1270;108881;-76
2022/09/30 02:42:50;;;;;;;29.60;21.40;;;;;;;7.16;79.08;99578.52;106115;1271;138507;-73
2022/09/30 02:45:24;;;;;;;28.90;22.70;;;;;;;7.21;79.32;99583.77;106334;1270;98366;-75
2022/09/30 02:48:13;;;;;;;31.00;21.90;;;;;;;7.24;79.33;99581.78;106258;1271;111423;-75
2022/09/30 02:50:51;;;;;;;29.40;22.80;;;;;;;7.25;79.19;99579.66;106175;1272;165544;-75
2022/09/30 02:53:32;;;;;;;30.10;22.70;;;;;;;7.25;79.18;99583.11;106312;1270;106102;-75
2022/09/30 02:56:13;;;;;;;30.40;23.40;;;;;;;7.25;79.21;99588.98;106117;1270;138785;-74
2022/09/30 02:58:47;;;;;;;30.10;22.70;;;;;;;7.23;79.14;99595.12;106197;1271;97900;-75
2022/09/30 03:01:20;;;;;;;32.50;24.50;;;;;;;7.20;79.22;99595.55;106241;1267;138367;-75
2022/09/30 03:03:55;;;;;;;33.10;24.80;;;;;;;7.16;79.13;99595.80;106179;1272;109362;-75
2022/09/30 03:06:28;;;;;;;33.80;22.80;;;;;;;7.13;79.30;99591.42;106100;1271;138557;-75
2022/09/30 03:09:00;;;;;;;32.30;23.10;;;;;;;7.11;79.39;99590.79;106177;1271;97849;-75
2022/09/30 03:11:33;;;;;;;33.50;23.80;;;;;;;7.10;79.43;99592.03;106200;1271;97892;-75
2022/09/30 03:14:30;;;;;;;34.00;23.30;;;;;;;7.08;79.65;99596.23;106082;1272;138340;-75
2022/09/30 03:17:26;;;;;;;32.60;24.10;;;;;;;7.07;79.73;99596.77;106304;1271;107864;-75
2022/09/30 03:20:20;;;;;;;30.30;24.00;;;;;;;7.06;79.83;99591.29;106078;1271;137476;-75
2022/09/30 03:23:21;;;;;;;34.30;23.90;;;;;;;7.06;79.98;99588.68;106172;1272;98617;-75
2022/09/30 03:26:03;;;;;;;32.30;23.40;;;;;;;7.04;79.73;99591.34;106125;1271;138853;-75
2022/09/30 03:28:43;;;;;;;30.40;22.60;;;;;;;7.00;79.35;99598.36;106259;1271;111997;-75
2022/09/30 03:31:23;;;;;;;32.90;23.30;;;;;;;6.94;79.34;99603.00;106139;1272;138782;-75
2022/09/30 03:34:01;;;;;;;33.50;24.00;;;;;;;6.91;79.36;99604.66;106232;1271;107815;-75
2022/09/30 03:36:39;;;;;;;33.40;23.70;;;;;;;6.92;79.41;99610.17;106176;1271;139017;-75
2022/09/30 03:39:23;;;;;;;31.70;23.90;;;;;;;6.89;79.45;99606.77;107094;1271;97937;-74
2022/09/30 03:42:05;;;;;;;33.10;23.90;;;;;;;6.90;79.53;99599.52;106980;1272;110957;-76
2022/09/30 03:44:42;;;;;;;33.40;25.10;;;;;;;6.88;79.36;99608.90;106273;1271;108928;-75
2022/09/30 03:47:18;;;;;;;36.10;25.40;;;;;;;6.84;79.35;99604.88;106291;1271;108876;-74
2022/09/30 03:49:56;;;;;;;33.70;25.60;;;;;;;6.82;79.27;99601.96;106071;1271;138454;-75
2022/09/30 03:52:30;;;;;;;37.30;26.70;;;;;;;6.82;79.31;99604.90;106403;1271;97835;-75
2022/09/30 03:55:06;;;;;;;39.40;28.90;;;;;;;6.84;79.25;99605.05;106486;1271;138145;-75
2022/09/30 03:57:39;;;;;;;39.40;28.00;;;;;;;6.85;79.32;99603.98;106231;1271;107870;-75
2022/09/30 04:00:13;;;;;;;43.70;27.90;;;;;;;6.86;79.33;99603.09;106098;1271;138559;-75
2022/09/30 04:02:45;;;;;;;41.70;28.20;;;;;;;6.86;79.29;99601.17;106422;1272;97838;-75
2022/09/30 04:05:17;;;;;;;37.90;27.10;;;;;;;6.86;79.21;99603.09;107711;1272;95921;-75
2022/09/30 04:07:49;;;;;;;40.40;27.40;;;;;;;6.85;79.24;99603.10;107557;1274;138266;-76
2022/09/30 04:10:22;;;;;;;42.90;29.50;;;;;;;6.83;79.00;99607.99;106530;1274;107786;-75
2022/09/30 04:12:56;;;;;;;40.10;28.70;;;;;;;6.81;79.13;99611.66;106040;1272;140372;-75
2022/09/30 04:15:28;;;;;;;44.10;30.20;;;;;;;6.82;78.91;99616.66;106123;1272;97812;-74
2022/09/30 04:18:01;;;;;;;39.50;30.10;;;;;;;6.82;79.00;99618.74;106095;1273;138744;-73
2022/09/30 04:20:34;;;;;;;39.70;29.50;;;;;;;6.82;78.80;99624.09;106344;1271;111409;-75
2022/09/30 04:23:06;;;;;;;44.30;31.10;;;;;;;6.79;78.85;99631.40;106161;1272;107828;-74
2022/09/30 04:25:38;;;;;;;45.40;33.40;;;;;;;6.77;78.89;99635.10;106124;1271;138585;-74
2022/09/30 04:28:10;;;;;;;43.20;30.30;;;;;;;6.76;78.80;99645.50;106198;1272;97827;-75
2022/09/30 04:30:43;;;;;;;44.20;30.20;;;;;;;6.73;78.88;99651.79;106111;1271;138909;-74
2022/09/30 04:33:15;;;;;;;41.70;30.30;;;;;;;6.71;79.12;99657.38;106243;1271;111676;-74
2022/09/30 04:35:48;;;;;;;40.20;28.70;;;;;;;6.69;79.33;99657.95;106344;1271;106809;-74
2022/09/30 04:38:20;;;;;;;39.40;28.80;;;;;;;6.69;79.74;99655.55;106211;1271;138193;-74
2022/09/30 04:40:53;;;;;;;40.40;29.10;;;;;;;6.68;79.79;99659.71;106135;1271;97840;-74
2022/09/30 04:43:26;;;;;;;39.20;28.20;;;;;;;6.69;79.89;99664.70;106071;1271;138415;-75
2022/09/30 04:45:58;;;;;;;41.40;29.00;;;;;;;6.69;79.83;99666.78;106181;1271;112405;-74
2022/09/30 04:48:31;;;;;;;38.70;27.30;;;;;;;6.69;80.03;99662.80;106199;1271;138472;-75
2022/09/30 04:51:03;;;;;;;40.10;29.60;;;;;;;6.71;80.22;99664.99;106179;1271;108864;-74
2022/09/30 04:53:36;;;;;;;40.20;29.20;;;;;;;6.72;80.06;99662.36;106193;1271;97916;-74
2022/09/30 04:56:09;;;;;;;44.00;30.30;;;;;;;6.73;80.05;99657.86;106113;1272;138322;-74
2022/09/30 04:58:41;;;;;;;44.70;30.20;;;;;;;6.74;80.11;99661.13;106210;1272;112449;-75
2022/09/30 05:01:15;;;;;;;41.20;29.20;;;;;;;6.74;79.85;99669.23;106129;1271;138361;-74
2022/09/30 05:03:47;;;;;;;42.10;29.70;;;;;;;6.73;79.77;99672.54;106222;1272;108869;-74
2022/09/30 05:06:20;;;;;;;40.40;28.40;;;;;;;6.72;79.78;99676.19;106131;1271;138578;-74
2022/09/30 05:08:53;;;;;;;40.10;28.10;;;;;;;6.71;79.68;99685.20;106243;1272;97840;-75
2022/09/30 05:11:26;;;;;;;44.10;28.90;;;;;;;6.69;79.75;99688.02;106179;1271;111891;-74
2022/09/30 05:13:58;;;;;;;46.00;29.00;;;;;;;6.68;79.99;99699.95;106235;1270;138844;-74
2022/09/30 05:16:30;;;;;;;41.40;28.40;;;;;;;6.69;80.15;99705.80;106195;1271;108685;-75
2022/09/30 05:19:03;;;;;;;40.30;27.60;;;;;;;6.73;80.17;99705.38;106141;1272;140314;-76
2022/09/30 05:21:36;;;;;;;44.50;28.70;;;;;;;6.75;80.11;99695.29;106268;1272;97839;-75
2022/09/30 05:24:08;;;;;;;39.90;27.70;;;;;;;6.76;79.90;99691.12;106310;1272;138692;-75
2022/09/30 05:26:40;;;;;;;42.90;28.20;;;;;;;6.77;79.93;99686.24;106192;1271;109880;-75
2022/09/30 05:29:13;;;;;;;42.20;27.80;;;;;;;6.79;79.82;99686.89;106202;1271;108807;-75
2022/09/30 05:31:45;;;;;;;44.40;28.50;;;;;;;6.82;79.76;99689.23;106126;1271;138473;-75
2022/09/30 05:34:17;;;;;;;43.50;28.80;;;;;;;6.83;79.73;99689.20;106189;1273;97834;-75
2022/09/30 05:36:50;;;;;;;41.50;28.30;;;;;;;6.86;79.78;99692.41;106069;1271;138443;-75
2022/09/30 05:39:22;;;;;;;41.00;27.70;;;;;;;6.89;79.74;99698.72;106212;1273;107798;-75
2022/09/30 05:41:55;;;;;;;41.20;28.30;;;;;;;6.93;79.76;99702.25;106172;1271;108904;-74
2022/09/30 05:44:27;;;;;;;41.80;27.60;;;;;;;6.98;79.67;99706.96;106277;1271;97829;-74
2022/09/30 05:47:00;;;;;;;43.10;27.90;;;;;;;7.05;79.83;99711.27;106225;1271;97747;-75
2022/09/30 05:49:33;;;;;;;37.80;27.60;;;;;;;7.15;79.54;99714.81;106225;1271;138394;-75
2022/09/30 05:52:06;;;;;;;41.40;27.80;;;;;;;7.26;79.40;99713.99;106221;1274;108621;-75
2022/09/30 05:54:38;;;;;;;42.20;28.30;;;;;;;7.36;79.20;99713.39;106243;1271;138884;-75
2022/09/30 05:57:12;;;;;;;37.40;27.00;;;;;;;7.49;79.34;99710.59;106168;1272;97861;-75
2022/09/30 05:59:44;;;;;;;37.80;26.70;;;;;;;7.67;79.11;99709.73;106226;1273;97951;-75
2022/09/30 06:02:16;;;;;;;36.50;26.90;;;;;;;7.91;79.12;99709.89;106129;1272;138347;-74
2022/09/30 06:04:49;;;;;;;42.40;27.30;;;;;;;8.27;78.75;99709.81;106228;1271;107807;-75
2022/09/30 06:07:21;;;;;;;40.30;27.10;;;;;;;8.68;78.52;99713.92;106083;1272;138596;-74
2022/09/30 06:09:53;;;;;;;36.70;26.90;;;;;;;9.09;78.24;99713.55;106237;1270;97826;-76
2022/09/30 06:12:27;;;;;;;35.20;26.20;;;;;;;9.60;77.84;99723.88;106168;1271;138552;-77
2022/09/30 06:14:59;;;;;;;35.50;25.90;;;;;;;10.07;76.99;99724.89;106210;1273;112542;-75
2022/09/30 06:17:31;;;;;;;37.50;26.20;;;;;;;10.50;76.47;99723.23;106337;1271;109026;-76
2022/09/30 06:20:05;;;;;;;33.00;24.70;;;;;;;11.04;75.85;99723.61;106043;1272;138834;-76
2022/09/30 06:22:37;;;;;;;35.50;25.90;;;;;;;11.60;74.77;99723.93;106176;1274;97811;-75
2022/09/30 06:25:11;;;;;;;35.00;24.80;;;;;;;12.04;73.73;99727.02;106082;1271;138577;-75
2022/09/30 06:27:46;;;;;;;29.60;23.40;;;;;;;12.56;72.97;99727.52;106476;1271;111484;-76
2022/09/30 06:30:18;;;;;;;34.00;22.50;;;;;;;13.28;72.11;99730.71;106125;1274;140083;-76
2022/09/30 06:32:52;;;;;;;31.40;23.10;;;;;;;14.01;70.52;99730.71;106139;1273;107844;-76
2022/09/30 06:35:26;;;;;;;31.40;23.00;;;;;;;14.37;69.05;99734.17;106143;1271;97944;-77
2022/09/30 06:37:58;;;;;;;29.90;21.80;;;;;;;14.80;67.78;99734.38;106097;1273;140000;-74
2022/09/30 06:40:30;;;;;;;29.30;21.80;;;;;;;15.21;66.71;99725.13;106193;1271;111823;-78
2022/09/30 06:43:04;;;;;;;29.60;21.50;;;;;;;15.31;65.72;99731.01;106136;1273;138683;-76
2022/09/30 06:45:37;;;;;;;30.20;20.70;;;;;;;15.35;64.97;99733.39;106236;1272;107598;-75
2022/09/30 06:48:11;;;;;;;30.10;21.30;;;;;;;15.33;64.43;99730.73;106021;1274;138230;-75
2022/09/30 06:50:44;;;;;;;28.10;20.20;;;;;;;15.20;64.13;99731.14;106217;1271;98300;-76
2022/09/30 06:53:34;;;;;;;28.00;21.10;;;;;;;15.04;64.46;99734.53;106197;1273;112785;-74
2022/09/30 06:56:07;;;;;;;30.30;20.70;;;;;;;15.31;64.89;99731.34;106048;1274;140406;-75
2022/09/30 06:58:40;;;;;;;28.90;20.50;;;;;;;15.58;64.03;99729.36;106541;1272;107451;-75
2022/09/30 07:01:14;;;;;;;28.20;20.10;;;;;;;15.76;63.69;99733.89;106039;1271;139369;-75
2022/09/30 07:03:48;;;;;;;29.10;20.40;;;;;;;15.83;63.24;99735.40;106240;1272;97881;-74
2022/09/30 07:06:26;;;;;;;33.10;21.00;;;;;;;15.76;62.93;99735.47;106083;1274;138419;-75
2022/09/30 07:08:58;;;;;;;29.90;21.60;;;;;;;15.80;62.66;99736.27;106217;1274;108186;-75
2022/09/30 07:11:31;;;;;;;33.10;21.70;;;;;;;15.85;62.42;99738.27;106189;1271;109046;-75
2022/09/30 07:14:04;;;;;;;29.80;20.30;;;;;;;16.03;62.19;99740.98;106109;1271;139078;-74
2022/09/30 07:16:37;;;;;;;30.30;20.90;;;;;;;16.25;61.87;99741.48;106240;1271;97886;-75
2022/09/30 07:19:11;;;;;;;33.60;21.00;;;;;;;17.02;61.66;99740.52;106114;1272;138031;-75
2022/09/30 07:21:43;;;;;;;31.40;19.20;;;;;;;18.06;60.70;99733.02;107130;1271;107525;-75
2022/09/30 07:24:15;;;;;;;28.10;18.30;;;;;;;19.12;59.28;99730.17;106098;1272;138288;-75
2022/09/30 07:26:48;;;;;;;25.40;17.40;;;;;;;20.16;57.67;99729.16;106172;1272;97861;-76
2022/09/30 07:29:20;;;;;;;24.30;17.40;;;;;;;20.95;55.89;99734.90;106091;1273;97812;-76
2022/09/30 07:31:54;;;;;;;27.00;18.10;;;;;;;21.51;54.51;99743.74;106130;1272;137948;-76
2022/09/30 07:34:34;;;;;;;27.30;17.10;;;;;;;22.00;52.90;99743.60;106217;1272;106365;-76
2022/09/30 07:37:06;;;;;;;24.60;16.30;;;;;;;22.09;51.78;99742.33;106122;1271;138325;-75
2022/09/30 07:39:38;;;;;;;24.90;16.40;;;;;;;22.06;50.84;99746.41;106241;1272;97853;-76
2022/09/30 07:42:10;;;;;;;24.80;16.30;;;;;;;21.80;50.28;99749.26;106153;1270;138236;-75
2022/09/30 07:44:43;;;;;;;27.00;17.40;;;;;;;21.49;50.42;99751.22;106189;1271;111928;-75
2022/09/30 07:47:17;;;;;;;24.20;16.80;;;;;;;21.31;50.22;99755.40;106214;1271;108997;-75
2022/09/30 07:49:49;;;;;;;22.40;16.90;;;;;;;21.05;50.25;99759.13;106093;1272;138078;-75
2022/09/30 07:52:22;;;;;;;26.20;17.40;;;;;;;20.82;50.12;99761.25;106222;1271;97814;-74
2022/09/30 07:54:54;;;;;;;26.80;16.60;;;;;;;20.58;50.39;99767.25;106132;1271;137853;-74
2022/09/30 07:57:26;;;;;;;24.90;17.30;;;;;;;20.27;50.37;99769.23;106250;1271;111626;-75
2022/09/30 07:59:59;;;;;;;22.70;16.70;;;;;;;19.89;50.58;99771.52;106094;1272;138306;-75
2022/09/30 08:02:51;;;;;;;21.00;16.90;;;;;;;19.55;50.78;99779.93;106149;1272;108994;-75
2022/09/30 08:05:23;;;;;;;20.40;16.30;;;;;;;19.40;51.18;99783.03;106221;1272;97859;-75
2022/09/30 08:07:55;;;;;;;20.20;16.00;;;;;;;19.36;51.47;99788.79;106146;1270;137910;-74
2022/09/30 08:10:28;;;;;;;21.40;15.50;;;;;;;19.53;50.87;99793.31;106196;1271;112426;-73
2022/09/30 08:13:00;;;;;;;23.10;16.80;;;;;;;19.61;50.59;99798.19;106137;1271;138179;-75
2022/09/30 08:15:37;;;;;;;22.40;16.50;;;;;;;19.42;50.24;99798.89;106263;1271;109408;-74
2022/09/30 08:18:09;;;;;;;24.30;16.70;;;;;;;19.17;50.50;99798.88;107212;1271;138641;-74
2022/09/30 08:20:41;;;;;;;20.70;16.40;;;;;;;18.80;50.38;99799.66;106860;1271;97810;-75
2022/09/30 08:23:14;;;;;;;24.20;17.00;;;;;;;18.26;50.77;99802.48;106167;1272;112730;-74
2022/09/30 08:25:46;;;;;;;26.20;17.40;;;;;;;17.75;51.43;99806.95;106113;1271;138289;-73
2022/09/30 08:28:18;;;;;;;22.80;18.80;;;;;;;17.29;52.14;99804.25;106186;1271;108583;-75
2022/09/30 08:30:51;;;;;;;28.50;18.40;;;;;;;16.93;52.84;99807.52;106081;1272;234871;-75
2022/09/30 08:33:23;;;;;;;23.00;18.60;;;;;;;16.60;53.41;99807.74;106375;1271;97846;-74
2022/09/30 08:35:55;;;;;;;24.10;18.30;;;;;;;16.26;53.76;99811.80;106207;1272;111556;-76
2022/09/30 08:38:27;;;;;;;23.30;18.30;;;;;;;15.92;54.57;99813.21;106688;1271;110239;-76
2022/09/30 08:41:12;;;;;;;29.00;19.40;;;;;;;15.69;55.38;99814.06;106113;1272;108929;-75
2022/09/30 08:43:58;;;;;;;24.60;19.10;;;;;;;15.47;55.90;99816.92;106080;1271;138362;-74
2022/09/30 08:46:37;;;;;;;25.90;18.50;;;;;;;15.31;56.04;99823.66;106204;1270;97810;-73
2022/09/30 08:49:27;;;;;;;22.80;18.00;;;;;;;15.13;56.01;99823.84;106098;1271;137957;-74
2022/09/30 08:52:01;;;;;;;27.80;18.60;;;;;;;14.88;56.16;99828.23;106500;1271;107721;-74
2022/09/30 08:54:36;;;;;;;22.30;17.80;;;;;;;14.67;56.61;99829.77;106662;1272;139287;-76
2022/09/30 08:57:13;;;;;;;24.90;18.40;;;;;;;14.47;56.97;99828.40;106209;1271;97852;-76
2022/09/30 08:59:48;;;;;;;22.70;17.70;;;;;;;14.26;57.31;99826.40;106856;1272;97856;-75
2022/09/30 09:02:26;;;;;;;25.70;18.50;;;;;;;14.08;57.86;99828.91;106823;1271;137651;-75
2022/09/30 09:05:01;;;;;;;26.40;18.30;;;;;;;13.95;58.19;99835.22;107086;1271;108581;-74
2022/09/30 09:07:42;;;;;;;25.80;19.50;;;;;;;13.81;58.40;99834.72;106051;1271;138112;-74
2022/09/30 09:10:28;;;;;;;28.20;19.30;;;;;;;13.64;58.81;99838.91;106204;1271;97813;-75
2022/09/30 09:13:11;;;;;;;23.40;17.40;;;;;;;13.49;59.02;99846.31;106072;1270;137928;-75
2022/09/30 09:15:59;;;;;;;23.30;17.40;;;;;;;13.35;59.12;99844.10;106162;1272;112721;-74
2022/09/30 09:18:42;;;;;;;24.40;18.50;;;;;;;13.18;59.46;99846.79;107224;1272;138558;-75
2022/09/30 09:21:22;;;;;;;29.60;17.90;;;;;;;13.04;59.75;99850.63;106181;1270;108875;-75
2022/09/30 09:23:57;;;;;;;29.20;18.10;;;;;;;12.93;60.24;99850.98;106122;1272;98024;-75
2022/09/30 09:26:35;;;;;;;27.10;17.50;;;;;;;12.84;60.67;99855.09;106201;1271;97744;-75
2022/09/30 09:29:25;;;;;;;26.20;17.30;;;;;;;12.77;60.63;99853.50;106115;1272;112231;-75
2022/09/30 09:32:00;;;;;;;21.50;17.00;;;;;;;12.67;60.81;99853.11;106032;1272;138694;-75
2022/09/30 09:34:33;;;;;;;23.40;17.90;;;;;;;12.63;61.14;99849.95;106212;1271;108899;-75
2022/09/30 09:37:20;;;;;;;24.90;18.10;;;;;;;12.62;61.48;99848.12;106050;1270;138843;-74
2022/09/30 09:40:09;;;;;;;27.30;18.90;;;;;;;12.61;61.64;99843.58;106946;1272;96477;-72
2022/09/30 09:43:00;;;;;;;23.70;18.10;;;;;;;12.67;61.76;99850.14;106075;1271;138892;-75
2022/09/30 09:45:38;;;;;;;27.50;19.30;;;;;;;12.69;61.94;99845.80;106149;1271;108798;-74
2022/09/30 09:48:16;;;;;;;31.00;19.90;;;;;;;12.78;62.09;99840.37;106803;1271;139584;-74
2022/09/30 09:50:58;;;;;;;26.60;19.20;;;;;;;12.88;62.05;99839.89;106709;1271;98322;-74
2022/09/30 09:53:44;;;;;;;28.10;19.40;;;;;;;12.93;61.82;99839.30;106205;1271;98295;-74
2022/09/30 09:56:20;;;;;;;23.40;17.50;;;;;;;12.96;61.63;99842.84;106002;1272;138828;-74
2022/09/30 09:59:11;;;;;;;26.30;18.70;;;;;;;12.98;61.75;99838.90;106137;1272;111220;-74
2022/09/30 10:01:45;;;;;;;25.90;18.60;;;;;;;13.05;62.01;99834.88;106994;1270;139408;-74
2022/09/30 10:04:23;;;;;;;26.90;18.90;;;;;;;13.16;62.28;99836.27;106187;1271;97919;-74
2022/09/30 10:06:59;;;;;;;28.20;20.70;;;;;;;13.31;62.42;99829.61;106594;1271;138693;-74
2022/09/30 10:09:34;;;;;;;30.80;22.50;;;;;;;13.49;61.96;99829.92;106238;1271;112769;-73
2022/09/30 10:12:35;;;;;;;27.40;20.70;;;;;;;13.65;61.94;99828.55;107017;1272;138883;-74
2022/09/30 10:15:23;;;;;;;27.20;19.40;;;;;;;13.88;60.72;99825.29;105762;1279;108817;-74
2022/09/30 10:17:59;;;;;;;28.10;20.40;;;;;;;14.04;60.72;99823.04;105735;1279;97942;-74
2022/09/30 10:20:36;;;;;;;27.30;19.50;;;;;;;14.17;60.49;99820.05;105815;1278;97838;-74
2022/09/30 10:23:18;;;;;;;23.80;18.60;;;;;;;14.26;60.34;99821.51;105750;1279;112861;-74
2022/09/30 10:26:16;;;;;;;25.50;18.30;;;;;;;14.30;59.83;99824.22;105621;1279;139101;-74
2022/09/30 10:28:48;;;;;;;;;;;;;;;14.27;59.66;99820.02;105765;1279;108125;-74
2022/09/30 10:31:26;;;;;;;21.90;16.10;;;;;;;14.24;59.49;99825.14;105631;1279;124312;-74
2022/09/30 10:34:09;;;;;;;24.70;17.70;;;;;;;14.22;59.79;99829.23;105766;1278;98449;-74
2022/09/30 10:36:43;;;;;;;23.90;17.10;;;;;;;14.27;60.18;99834.39;105576;1279;138162;-73
2022/09/30 10:39:23;;;;;;;24.00;17.50;;;;;;;14.33;60.44;99843.13;105791;1279;107902;-73
2022/09/30 10:42:07;;;;;;;26.10;17.50;;;;;;;14.41;60.52;99843.27;106027;1279;108950;-73
2022/09/30 10:44:47;;;;;;;20.10;16.30;;;;;;;14.47;59.92;99845.20;105767;1279;97228;-73
2022/09/30 10:47:24;;;;;;;21.40;17.00;;;;;;;14.51;59.98;99846.39;105792;1279;97878;-74
2022/09/30 10:50:03;;;;;;;19.70;16.30;;;;;;;14.56;60.09;99844.75;105808;1273;137993;-73
2022/09/30 10:52:43;;;;;;;23.50;16.40;;;;;;;14.65;60.51;99843.39;106239;1271;108855;-73
2022/09/30 10:55:31;;;;;;;19.90;15.60;;;;;;;14.78;60.46;99845.06;105959;1271;138692;-74
2022/09/30 10:58:25;;;;;;;21.90;16.00;;;;;;;14.87;59.69;99843.67;106089;1272;97930;-73
2022/09/30 11:01:04;;;;;;;20.60;15.90;;;;;;;14.90;58.93;99844.59;105977;1274;138601;-74
2022/09/30 11:03:47;;;;;;;17.70;15.10;;;;;;;14.92;59.27;99842.35;106188;1271;111840;-74
2022/09/30 11:06:21;;;;;;;20.50;14.50;;;;;;;14.96;59.03;99841.24;106101;1272;138143;-74
2022/09/30 11:09:02;;;;;;;19.10;13.90;;;;;;;14.95;58.67;99843.42;106093;1273;107793;-75
2022/09/30 11:11:41;;;;;;;19.30;14.70;;;;;;;14.96;59.02;99844.41;106450;1270;97832;-74
2022/09/30 11:14:29;;;;;;;20.00;14.70;;;;;;;14.98;59.26;99845.02;106131;1271;137826;-72
2022/09/30 11:17:15;;;;;;;16.30;12.80;;;;;;;15.00;59.51;99845.94;106517;1273;112643;-73
2022/09/30 11:20:06;;;;;;;17.90;12.90;;;;;;;14.99;59.23;99843.88;107729;1271;140362;-74
2022/09/30 11:22:47;;;;;;;17.50;12.10;;;;;;;14.99;59.47;99842.82;106933;1271;108528;-74
2022/09/30 11:25:27;;;;;;;16.60;11.30;;;;;;;15.03;59.67;99841.04;106110;1271;138161;-74
2022/09/30 11:28:28;;;;;;;15.40;10.90;;;;;;;15.05;59.02;99842.31;106147;1273;99676;-74
2022/09/30 11:31:08;;;;;;;16.40;10.10;;;;;;;15.01;58.55;99842.52;106109;1271;137935;-75
2022/09/30 11:33:57;;;;;;;11.70;10.00;;;;;;;14.93;57.80;99841.77;106256;1271;108956;-75
2022/09/30 11:36:36;;;;;;;14.10;10.70;;;;;;;14.81;57.74;99842.30;106170;1271;139695;-75
2022/09/30 11:39:33;;;;;;;14.80;10.20;;;;;;;14.69;57.78;99844.69;106189;1271;97966;-75
2022/09/30 11:42:13;;;;;;;12.10;9.90;;;;;;;14.59;58.08;99841.77;106174;1271;138242;-74
2022/09/30 11:44:46;;;;;;;17.10;10.50;;;;;;;14.50;58.05;99842.79;106200;1273;112364;-74
2022/09/30 11:47:37;;;;;;;12.50;9.50;;;;;;;14.43;58.65;99839.48;106291;1271;108886;-74
2022/09/30 11:50:35;;;;;;;11.30;9.20;;;;;;;14.37;58.63;99840.98;106088;1271;138036;-75
2022/09/30 11:53:19;;;;;;;12.50;9.70;;;;;;;14.32;58.53;99839.73;106177;1272;97848;-74
2022/09/30 11:56:16;;;;;;;14.80;9.70;;;;;;;14.27;58.51;99839.82;106177;1271;139010;-74